createdAt,value
2019-01-05T11:25:23.739Z,30.77
2019-01-05T11:28:46.281Z,29.07
2019-01-05T11:31:54.349Z,28.20
2019-01-05T11:35:31.256Z,29.73
2019-01-05T11:39:23.202Z,29.77
2019-01-05T11:43:04.311Z,25.83
2019-01-05T11:46:47.621Z,32.17
2019-01-05T11:50:15.692Z,23.50
2019-01-05T11:53:38.731Z,21.43
2019-01-05T11:57:38.040Z,26.67
2019-01-05T12:01:06.316Z,19.73
2019-01-05T12:04:47.769Z,20.83
2019-01-05T12:08:38.129Z,24.77
2019-01-05T12:12:06.465Z,18.50
2019-01-05T12:15:42.368Z,34.20
2019-01-05T12:19:20.452Z,22.63
2019-01-05T12:22:57.633Z,30.93
2019-01-05T12:26:17.319Z,27.00
2019-01-05T12:30:15.767Z,24.30
2019-01-05T12:33:54.547Z,23.57
2019-01-05T12:37:40.873Z,26.67
2019-01-05T12:41:00.163Z,32.17
2019-01-05T12:44:52.699Z,27.67
2019-01-05T12:48:20.386Z,24.73
2019-01-05T12:51:51.375Z,25.23
2019-01-05T12:55:21.906Z,28.33
2019-01-05T12:58:54.940Z,25.37
2019-01-05T13:02:18.394Z,27.23
2019-01-05T13:06:00.887Z,24.03
2019-01-05T13:09:33.831Z,26.67
2019-01-05T13:13:13.347Z,33.90
2019-01-05T13:16:42.643Z,41.10
2019-01-05T13:20:03.854Z,58.47
2019-01-05T13:23:37.984Z,60.73
2019-01-05T13:26:43.900Z,33.27
2019-01-05T13:30:16.767Z,41.10
2019-01-05T13:33:49.283Z,100.80
2019-01-05T13:37:22.535Z,249.23
2019-01-05T13:41:12.070Z,38.80
2019-01-05T13:44:53.187Z,33.50
2019-01-05T13:48:17.907Z,34.77
2019-01-05T13:51:47.169Z,32.77
2019-01-05T13:54:47.968Z,29.23
2019-01-05T13:57:54.512Z,25.43
2019-01-05T14:00:48.988Z,27.37
2019-01-05T14:03:36.368Z,40.63
2019-01-05T14:06:23.659Z,26.73
2019-01-05T14:09:30.238Z,33.43
2019-01-05T14:12:24.314Z,29.97
2019-01-05T14:15:14.749Z,27.27
2019-01-05T14:18:01.734Z,31.93
2019-01-05T14:20:52.913Z,29.63
2019-01-05T14:23:47.426Z,31.33
2019-01-05T14:26:38.525Z,29.03
2019-01-05T14:29:25.856Z,30.47
2019-01-05T14:32:13.301Z,27.73
2019-01-05T14:35:04.769Z,35.13
2019-01-05T14:37:51.735Z,29.43
2019-01-05T14:40:40.097Z,31.07
2019-01-05T14:43:28.763Z,32.67
2019-01-05T14:46:17.205Z,31.30
2019-01-05T14:49:04.168Z,30.33
2019-01-05T14:51:55.551Z,29.30
2019-01-05T14:54:49.844Z,34.33
2019-01-05T14:57:37.196Z,35.80
2019-01-05T15:00:26.850Z,27.33
2019-01-05T15:03:33.627Z,30.13
2019-01-05T15:06:20.593Z,45.97
2019-01-05T15:09:18.090Z,25.33
2019-01-05T15:12:24.545Z,30.37
2019-01-05T15:15:21.670Z,27.30
2019-01-05T15:18:15.933Z,27.23
2019-01-05T15:20:58.709Z,26.77
2019-01-05T15:23:38.644Z,31.60
2019-01-05T15:26:25.905Z,44.60
2019-01-05T15:29:23.320Z,54.33
2019-01-05T15:32:20.842Z,66.30
2019-01-05T15:35:03.389Z,48.17
2019-01-05T15:38:06.978Z,74.17
2019-01-05T15:40:54.230Z,58.23
2019-01-05T15:43:41.177Z,61.23
2019-01-05T15:46:42.645Z,86.47
2019-01-05T15:49:40.722Z,85.47
2019-01-05T15:52:28.204Z,115.77
2019-01-05T15:55:29.195Z,116.90
2019-01-05T15:58:23.539Z,91.53
2019-01-05T16:01:27.383Z,80.23
2019-01-05T16:04:34.114Z,75.80
2019-01-05T16:07:21.108Z,49.17
2019-01-05T16:10:08.348Z,54.43
2019-01-05T16:13:08.939Z,44.43
2019-01-05T16:15:57.025Z,39.80
2019-01-05T16:18:44.066Z,28.77
2019-01-05T16:21:38.794Z,34.00
2019-01-05T16:24:33.206Z,35.67
2019-01-05T16:27:33.756Z,33.47
2019-01-05T16:30:34.044Z,29.73
2019-01-05T16:33:40.817Z,26.30
2019-01-05T16:36:38.053Z,22.97
2019-01-05T16:39:32.447Z,23.07
2019-01-05T16:42:26.889Z,20.03
2019-01-05T16:45:11.330Z,32.10
2019-01-05T16:48:05.686Z,28.30
2019-01-05T16:50:52.999Z,29.33
2019-01-05T16:53:46.195Z,28.67
2019-01-05T16:56:49.981Z,35.67
2019-01-05T16:59:44.022Z,47.80
2019-01-05T17:02:32.453Z,26.13
2019-01-05T17:05:19.599Z,25.23
2019-01-05T17:08:07.948Z,33.67
2019-01-05T17:11:08.382Z,46.33
2019-01-05T17:14:11.781Z,34.37
2019-01-05T17:17:02.991Z,30.97
2019-01-05T17:19:50.172Z,37.43
2019-01-05T17:22:32.758Z,52.60
2019-01-05T17:25:24.415Z,49.10
2019-01-05T17:28:12.768Z,49.07
2019-01-05T17:30:54.725Z,49.50
2019-01-05T17:33:54.128Z,45.20
2019-01-05T17:36:47.235Z,55.93
2019-01-05T17:39:34.181Z,55.13
2019-01-05T17:42:16.450Z,23.57
2019-01-05T17:45:04.846Z,17.63
2019-01-05T17:47:51.753Z,16.40
2019-01-05T17:50:38.786Z,14.17
2019-01-05T17:53:33.269Z,14.83
2019-01-05T17:56:34.047Z,17.10
2019-01-05T17:59:26.396Z,15.50
2019-01-05T18:02:21.956Z,16.47
2019-01-05T18:05:19.516Z,18.17
2019-01-05T18:08:07.852Z,17.53
2019-01-05T18:10:55.385Z,19.30
2019-01-05T18:13:46.859Z,17.53
2019-01-05T18:16:47.477Z,36.23
2019-01-05T18:19:50.902Z,40.17
2019-01-05T18:22:45.587Z,89.20
2019-01-05T18:25:34.583Z,72.13
2019-01-05T18:28:27.124Z,46.63
2019-01-05T18:31:14.660Z,34.47
2019-01-05T18:34:03.937Z,64.93
2019-01-05T18:36:45.231Z,72.57
2019-01-05T18:39:39.741Z,51.17
2019-01-05T18:42:25.023Z,18.97
2019-01-05T18:45:12.170Z,17.20
2019-01-05T18:48:15.626Z,24.50
2019-01-05T18:51:02.980Z,24.90
2019-01-05T18:53:51.838Z,24.77
2019-01-05T18:56:35.970Z,25.67
2019-01-05T18:59:30.269Z,19.37
2019-01-05T19:02:17.269Z,27.47
2019-01-05T19:05:24.417Z,38.37
2019-01-05T19:08:11.518Z,32.43
2019-01-05T19:10:58.597Z,38.33
2019-01-05T19:13:45.635Z,40.57
2019-01-05T19:16:38.557Z,39.53
2019-01-05T19:19:33.121Z,30.47
2019-01-05T19:22:27.740Z,25.23
2019-01-05T19:25:22.075Z,23.97
2019-01-05T19:28:05.298Z,23.33
2019-01-05T19:31:02.853Z,26.53
2019-01-05T19:34:09.554Z,31.10
2019-01-05T19:36:55.458Z,32.40
2019-01-05T19:40:02.519Z,27.20
2019-01-05T19:42:56.826Z,23.60
2019-01-05T19:45:51.361Z,26.13
2019-01-05T19:48:46.706Z,33.10
2019-01-05T19:51:34.027Z,40.17
2019-01-05T19:54:25.775Z,25.60
2019-01-05T19:57:29.562Z,29.43
2019-01-05T20:00:16.750Z,24.43
2019-01-05T20:03:13.042Z,23.63
2019-01-05T20:05:59.641Z,25.73
2019-01-05T20:08:46.723Z,26.93
2019-01-05T20:11:37.916Z,29.17
2019-01-05T20:14:29.348Z,28.17
2019-01-05T20:17:21.277Z,26.93
2019-01-05T20:20:18.574Z,25.67
2019-01-05T20:23:09.831Z,26.60
2019-01-05T20:25:55.551Z,25.33
2019-01-05T20:28:49.815Z,24.37
2019-01-05T20:31:56.330Z,24.47
2019-01-05T20:34:44.777Z,23.23
2019-01-05T20:37:32.413Z,21.17
2019-01-05T20:40:38.993Z,21.33
2019-01-05T20:43:27.346Z,32.07
2019-01-05T20:46:18.541Z,43.90
2019-01-05T20:49:05.990Z,34.60
2019-01-05T20:52:06.228Z,41.00
2019-01-05T20:55:06.635Z,30.90
2019-01-05T20:58:08.838Z,35.77
2019-01-05T21:01:15.860Z,33.73
2019-01-05T21:04:10.315Z,25.83
2019-01-05T21:07:07.780Z,22.93
2019-01-05T21:10:14.298Z,24.27
2019-01-05T21:13:01.652Z,26.40
2019-01-05T21:16:05.816Z,24.23
2019-01-05T21:18:54.154Z,24.87
2019-01-05T21:21:48.717Z,25.10
2019-01-05T21:24:35.775Z,21.73
2019-01-05T21:27:22.720Z,22.20
2019-01-05T21:30:11.065Z,24.17
2019-01-05T21:33:05.941Z,22.00
2019-01-05T21:36:03.596Z,20.07
2019-01-05T21:39:07.091Z,19.27
2019-01-05T21:41:58.512Z,19.40
2019-01-05T21:44:44.742Z,19.27
2019-01-05T21:47:42.562Z,16.43
2019-01-05T21:50:48.486Z,16.00
2019-01-05T21:53:35.885Z,17.77
2019-01-05T21:56:27.326Z,20.37
2019-01-05T21:59:11.213Z,20.60
2019-01-05T22:02:02.675Z,23.47
2019-01-05T22:04:49.878Z,17.37
2019-01-05T22:07:41.172Z,17.93
2019-01-05T22:10:36.198Z,21.60
2019-01-05T22:13:24.634Z,24.47
2019-01-05T22:16:11.980Z,23.13
2019-01-05T22:19:03.154Z,25.47
2019-01-05T22:22:00.626Z,23.67
2019-01-05T22:24:53.272Z,23.47
2019-01-05T22:27:40.577Z,23.30
2019-01-05T22:30:40.085Z,21.67
2019-01-05T22:33:22.707Z,20.50
2019-01-05T22:36:29.520Z,18.93
2019-01-05T22:39:17.860Z,17.00
2019-01-05T22:42:05.001Z,17.27
2019-01-05T22:45:05.563Z,16.10
2019-01-05T22:47:56.924Z,16.70
2019-01-05T22:50:51.312Z,20.43
2019-01-05T22:53:51.773Z,17.50
2019-01-05T22:56:38.776Z,25.43
2019-01-05T22:59:42.207Z,19.63
2019-01-05T23:02:33.223Z,19.57
2019-01-05T23:05:20.574Z,19.77
2019-01-05T23:08:07.603Z,19.00
2019-01-05T23:10:55.102Z,18.97
2019-01-05T23:13:46.292Z,19.50
2019-01-05T23:16:52.844Z,20.97
2019-01-05T23:19:39.817Z,19.87
2019-01-05T23:22:33.118Z,19.07
2019-01-05T23:25:33.408Z,21.50
2019-01-05T23:28:40.032Z,19.60
2019-01-05T23:31:37.738Z,21.63
2019-01-05T23:34:34.848Z,23.20
2019-01-05T23:37:32.267Z,20.13
2019-01-05T23:40:19.672Z,18.77
2019-01-05T23:43:13.857Z,18.60
2019-01-05T23:46:02.269Z,16.37
2019-01-05T23:48:59.733Z,17.23
2019-01-05T23:51:46.781Z,13.87
2019-01-05T23:54:53.323Z,11.63
2019-01-05T23:57:41.847Z,14.23
